createdAt,value
2022-09-22T00:03:42.299Z,421.51938
2022-09-22T00:08:43.977Z,498.95495
2022-09-22T00:13:45.611Z,466.0339
2022-09-22T00:18:47.219Z,421.51938
2022-09-22T00:23:48.940Z,319.60976
2022-09-22T00:28:50.554Z,308.49704
2022-09-22T00:33:52.168Z,396.94118
2022-09-22T00:38:53.794Z,436.8
2022-09-22T00:43:55.407Z,315.08434
2022-09-22T00:48:57.025Z,253.54774
2022-09-22T00:53:58.731Z,229.18519
2022-09-22T00:59:00.367Z,152.81356
2022-09-22T01:04:01.987Z,225.27854
2022-09-22T01:09:03.739Z,152.81356
2022-09-22T01:14:05.603Z,152.81356
2022-09-22T01:19:07.513Z,136.5
2022-09-22T01:24:09.401Z,172.99628
2022-09-22T01:29:11.244Z,135.30435
2022-09-22T01:34:13.185Z,244.4878
2022-09-22T01:39:14.972Z,190.4
2022-09-22T01:44:16.834Z,258.28571
2022-09-22T01:49:18.754Z,172.14815
2022-09-22T01:54:20.811Z,135.30435
2022-09-22T01:59:22.670Z,121.52161
2022-09-22T02:04:24.550Z,160.90141
2022-09-22T02:09:26.204Z,129.54217
2022-09-22T02:14:27.978Z,79.08772
2022-09-22T02:19:29.841Z,72.06653
2022-09-22T02:24:31.760Z,73.41176
2022-09-22T02:29:33.581Z,82.73874
2022-09-22T02:34:35.229Z,107.39523
2022-09-22T02:39:37.106Z,109.5914
2022-09-22T02:44:38.936Z,79.98234
2022-09-22T02:49:40.851Z,94.61125
2022-09-22T02:54:42.592Z,96.8536
2022-09-22T02:59:44.224Z,74.23256
2022-09-22T03:04:45.951Z,71.80083
2022-09-22T03:09:47.646Z,92.07692
2022-09-22T03:14:49.245Z,98.77387
2022-09-22T03:19:50.874Z,77.33333
2022-09-22T03:24:52.575Z,71.27273
2022-09-22T03:29:54.245Z,70.48871
2022-09-22T03:34:55.892Z,71.27273
2022-09-22T03:39:57.557Z,70.22951
2022-09-22T03:44:59.181Z,75.62393
2022-09-22T03:50:00.827Z,80.28319
2022-09-22T03:55:02.450Z,85.6092
2022-09-22T04:00:04.212Z,85.93548
2022-09-22T04:05:05.825Z,75.62393
2022-09-22T04:10:07.415Z,91.72182
2022-09-22T04:15:09.061Z,82.42697
2022-09-22T04:20:10.661Z,91.01671
2022-09-22T04:25:12.258Z,114.16575
2022-09-22T04:30:13.831Z,134.71207
2022-09-22T04:35:15.469Z,100.34518
2022-09-22T04:40:17.133Z,102.76289
2022-09-22T04:45:18.720Z,86.59259
2022-09-22T04:50:20.348Z,75.62393
2022-09-22T04:55:21.985Z,74.23256
2022-09-22T05:00:23.625Z,74.50847
2022-09-22T05:05:25.254Z,80.58537
2022-09-22T05:10:26.919Z,78.20479
2022-09-22T05:15:28.527Z,77.04536
2022-09-22T05:20:30.112Z,88.94118
2022-09-22T05:25:31.719Z,102.76289
2022-09-22T05:30:33.341Z,115.11111
2022-09-22T05:35:36.997Z,96.8536
2022-09-22T05:40:39.043Z,84.63927
2022-09-22T05:45:40.740Z,84
2022-09-22T05:50:42.393Z,74.23256
2022-09-22T05:55:44.004Z,73.41176
2022-09-22T06:00:45.619Z,73.41176
2022-09-22T06:05:47.215Z,82.11659
2022-09-22T06:10:48.845Z,82.11659
2022-09-22T06:15:50.460Z,77.62256
2022-09-22T06:20:52.078Z,75.34328
2022-09-22T06:25:53.697Z,86.59259
2022-09-22T06:30:55.274Z,82.73874
2022-09-22T06:35:56.899Z,77.91304
2022-09-22T06:40:58.616Z,73.95781
2022-09-22T06:46:00.501Z,72.33333
2022-09-22T06:51:02.189Z,75.06383
2022-09-22T06:56:03.793Z,99.55556
2022-09-22T07:01:09.674Z,138.93671
2022-09-22T07:06:11.578Z,169.64103
2022-09-22T07:11:13.205Z,187.47826
2022-09-22T07:16:14.836Z,132.3792
2022-09-22T07:21:16.511Z,108.70588
2022-09-22T07:26:18.095Z,117.03371
2022-09-22T07:31:19.759Z,100.743
2022-09-22T07:36:21.392Z,96.8536
2022-09-22T07:41:22.997Z,86.59259
2022-09-22T07:46:24.788Z,112.30601
2022-09-22T07:51:26.453Z,187.47826
2022-09-22T07:56:28.175Z,152.10811
2022-09-22T08:01:29.801Z,112.30601
2022-09-22T08:06:31.436Z,105.25654
2022-09-22T08:11:33.083Z,101.94872
2022-09-22T08:16:35.890Z,99.55556
2022-09-22T08:21:43.169Z,125.17647
2022-09-22T08:26:49.704Z,172.99628
2022-09-22T08:31:51.701Z,145.96721
2022-09-22T08:36:53.489Z,144.65147
2022-09-22T08:41:55.157Z,136.5
2022-09-22T08:46:56.734Z,132.3792
2022-09-22T08:51:58.361Z,124.64516
2022-09-22T08:56:59.940Z,162.43972
2022-09-22T09:02:01.577Z,141.4359
2022-09-22T09:07:03.188Z,142.07074
2022-09-22T09:12:04.812Z,154.9589
2022-09-22T09:17:06.399Z,210.66667
2022-09-22T09:22:08.028Z,124.64516
2022-09-22T09:27:09.634Z,130.10272
2022-09-22T09:32:11.209Z,132.3792
2022-09-22T09:37:12.828Z,166.38267
2022-09-22T09:42:14.489Z,138.93671
2022-09-22T09:47:16.092Z,127.33333
2022-09-22T09:52:17.721Z,130.66667
2022-09-22T09:57:19.360Z,110.48649
2022-09-22T10:02:21.014Z,89.28302
2022-09-22T10:07:22.698Z,96.8536
2022-09-22T10:12:24.427Z,101.94872
2022-09-22T10:17:26.040Z,91.01671
2022-09-22T10:22:27.747Z,75.34328
2022-09-22T10:27:29.379Z,70.22951
2022-09-22T10:32:31.036Z,68.94929
2022-09-22T10:37:32.618Z,70.22951
2022-09-22T10:42:34.240Z,68.44444
2022-09-22T10:47:35.836Z,66.22222
2022-09-22T10:52:37.442Z,67.2
2022-09-22T10:57:39.036Z,66.70916
2022-09-22T11:02:40.641Z,69.20325
2022-09-22T11:07:42.242Z,73.14046
2022-09-22T11:12:43.910Z,72.33333
2022-09-22T11:17:45.725Z,66.95409
2022-09-22T11:22:47.385Z,64.54795
2022-09-22T11:27:49.024Z,63.61165
2022-09-22T11:32:50.634Z,64.3125
2022-09-22T11:37:52.238Z,64.3125
2022-09-22T11:42:53.905Z,71.27273
2022-09-22T11:47:55.484Z,74.50847
2022-09-22T11:52:58.768Z,71.53623
2022-09-22T11:58:00.446Z,66.70916
2022-09-22T12:03:02.584Z,64.78431
2022-09-22T12:08:04.405Z,64.07797
2022-09-22T12:13:06.038Z,65.49901
2022-09-22T12:18:07.657Z,64.78431
2022-09-22T12:23:09.276Z,65.73913
2022-09-22T12:28:10.918Z,71.53623
2022-09-22T12:33:12.553Z,71.80083
2022-09-22T12:38:14.266Z,68.94929
2022-09-22T12:43:15.891Z,67.69478
2022-09-22T12:48:17.531Z,67.69478
2022-09-22T12:53:19.168Z,66.22222
2022-09-22T12:58:20.790Z,66.70916
2022-09-22T13:03:22.443Z,65.02161
2022-09-22T13:08:24.245Z,64.54795
2022-09-22T13:13:25.914Z,69.97137
2022-09-22T13:18:27.483Z,69.71429
2022-09-22T13:23:29.118Z,67.44689
2022-09-22T13:28:30.752Z,71.53623
2022-09-22T13:33:32.346Z,69.20325
2022-09-22T13:38:33.921Z,66.46521
2022-09-22T13:43:35.579Z,65.9802
2022-09-22T13:48:37.179Z,65.73913
2022-09-22T13:53:38.773Z,65.73913
2022-09-22T13:58:40.433Z,65.9802
2022-09-22T14:03:42.008Z,65.73913
2022-09-22T14:08:43.612Z,65.73913
2022-09-22T14:13:45.324Z,65.9802
2022-09-22T14:18:46.990Z,65.73913
2022-09-22T14:23:48.582Z,66.95409
2022-09-22T14:28:50.188Z,65.73913
2022-09-22T14:33:51.817Z,69.20325
2022-09-22T14:39:03.161Z,67.69478
2022-09-22T14:44:07.878Z,67.69478
2022-09-22T14:49:09.459Z,68.69636
2022-09-22T14:54:11.047Z,67.94366
2022-09-22T14:59:12.873Z,69.20325
2022-09-22T15:04:14.485Z,69.97137
2022-09-22T15:09:15.988Z,72.06653
2022-09-22T15:14:17.673Z,69.45825
2022-09-22T15:19:19.341Z,75.62393
2022-09-22T15:24:20.932Z,78.20479
2022-09-22T15:29:22.517Z,78.49782
2022-09-22T15:34:24.098Z,79.68282
2022-09-22T15:39:25.675Z,78.20479
2022-09-22T15:44:27.470Z,77.33333
2022-09-22T15:49:29.041Z,76.47312
2022-09-22T15:54:30.624Z,73.68421
2022-09-22T15:59:32.228Z,73.14046
2022-09-22T16:04:33.839Z,77.62256
2022-09-22T16:09:35.464Z,78.79212
2022-09-22T16:14:37.036Z,75.06383
2022-09-22T16:19:38.653Z,84
2022-09-22T16:24:41.342Z,97.23383
2022-09-22T16:29:42.930Z,100.743
2022-09-22T16:34:44.543Z,97.61596
2022-09-22T16:39:46.105Z,92.07692
2022-09-22T16:44:47.894Z,87.58974
2022-09-22T16:49:49.627Z,83.36652
2022-09-22T16:54:51.215Z,106.96296
2022-09-22T16:59:52.804Z,107.82979
2022-09-22T17:04:54.361Z,117.03371
2022-09-22T17:09:55.969Z,117.52113
2022-09-22T17:14:57.646Z,117.03371
2022-09-22T17:19:59.238Z,112.76712
2022-09-22T17:25:00.795Z,111.3913
2022-09-22T17:30:02.420Z,133.53846
2022-09-22T17:35:04.005Z,130.10272
2022-09-22T17:40:05.613Z,145.30719
2022-09-22T17:45:07.289Z,140.17834
2022-09-22T17:50:08.888Z,138.93671
2022-09-22T17:55:10.485Z,147.97351
2022-09-22T18:00:12.086Z,154.9589
2022-09-22T18:05:13.660Z,166.38267
2022-09-22T18:10:15.238Z,153.52381
2022-09-22T18:15:16.831Z,160.90141
2022-09-22T18:20:18.464Z,175.57895
2022-09-22T18:25:20.087Z,193.39271
2022-09-22T18:30:21.905Z,180.92308
2022-09-22T18:35:23.546Z,152.81356
2022-09-22T18:40:25.241Z,160.14035
2022-09-22T18:45:26.915Z,154.23891
2022-09-22T18:50:28.532Z,152.81356
2022-09-22T18:55:30.265Z,151.40741
2022-09-22T19:00:31.852Z,152.81356
2022-09-22T19:05:33.421Z,148.65116
2022-09-22T19:10:35.027Z,143.35275
2022-09-22T19:15:36.677Z,173.85075
2022-09-22T19:20:38.299Z,155.68385
2022-09-22T19:25:39.872Z,173.85075
2022-09-22T19:30:41.555Z,161.66784
2022-09-22T19:35:43.195Z,177.33333
2022-09-22T19:40:44.922Z,207.24786
2022-09-22T19:45:46.766Z,225.27854
2022-09-22T19:50:48.384Z,429.03937
2022-09-22T19:55:49.996Z,498.95495
2022-09-22T20:00:51.778Z,553.90099
2022-09-22T20:05:53.396Z,560
2022-09-22T20:11:10.845Z,560
2022-09-22T20:16:24.700Z,470.49573
2022-09-22T20:21:26.327Z,444.81301
2022-09-22T20:26:27.950Z,448.91803
2022-09-22T20:31:29.722Z,519.70093
2022-09-22T20:36:35.956Z,572.57143
2022-09-22T20:41:38.358Z,585.66667
2022-09-22T20:46:40.026Z,592.42105
2022-09-22T20:51:41.686Z,542.05825
2022-09-22T20:56:43.306Z,686.16867
2022-09-22T21:01:45.063Z,660.27907
2022-09-22T21:06:46.751Z,744
2022-09-22T21:11:48.443Z,547.92157
2022-09-22T21:16:50.068Z,677.33333
2022-09-22T21:21:51.647Z,644
2022-09-22T21:26:53.224Z,652.04598
2022-09-22T21:31:54.870Z,686.16867
2022-09-22T21:36:56.450Z,644
2022-09-22T21:41:58.082Z,620.92308
2022-09-22T21:46:59.700Z,553.90099
2022-09-22T21:52:01.313Z,652.04598
2022-09-22T21:57:03.022Z,660.27907
2022-09-22T22:02:04.678Z,668.70588
2022-09-22T22:07:06.282Z,660.27907
2022-09-22T22:12:07.902Z,668.70588
2022-09-22T22:17:09.530Z,628.44444
2022-09-22T22:22:11.105Z,652.04598
2022-09-22T22:27:12.822Z,644
2022-09-22T22:32:14.496Z,519.70093
2022-09-22T22:37:16.110Z,620.92308
2022-09-22T22:42:17.847Z,592.42105
2022-09-22T22:47:19.469Z,636.13483
2022-09-22T22:52:21.088Z,592.42105
2022-09-22T22:57:22.731Z,606.36559
2022-09-22T23:02:24.341Z,572.57143
2022-09-22T23:07:26.044Z,525.13208
2022-09-22T23:12:27.836Z,644
2022-09-22T23:17:29.442Z,636.13483
2022-09-22T23:22:31.064Z,636.13483
2022-09-22T23:27:32.649Z,652.04598
2022-09-22T23:32:34.247Z,660.27907
2022-09-22T23:37:35.999Z,585.66667
2022-09-22T23:42:37.652Z,560
2022-09-22T23:47:39.299Z,566.22222
2022-09-22T23:52:40.924Z,536.30769
2022-09-22T23:57:42.592Z,628.44444
